sensor_id;sensor_type;location;lat;lon;timestamp;temperature;humidity
33476;DHT22;19814;48.224;11.422;2023-12-20T00:00:35;6.90;77.00
33476;DHT22;19814;48.224;11.422;2023-12-20T00:03:01;6.90;77.00
33476;DHT22;19814;48.224;11.422;2023-12-20T00:05:26;6.80;76.90
33476;DHT22;19814;48.224;11.422;2023-12-20T00:07:52;6.90;76.90
33476;DHT22;19814;48.224;11.422;2023-12-20T00:10:17;6.90;77.40
33476;DHT22;19814;48.224;11.422;2023-12-20T00:12:43;6.80;78.10
33476;DHT22;19814;48.224;11.422;2023-12-20T00:15:08;6.80;77.80
33476;DHT22;19814;48.224;11.422;2023-12-20T00:17:33;6.80;78.70
33476;DHT22;19814;48.224;11.422;2023-12-20T00:19:59;6.80;78.50
33476;DHT22;19814;48.224;11.422;2023-12-20T00:22:25;6.80;78.20
33476;DHT22;19814;48.224;11.422;2023-12-20T00:24:50;6.90;78.10
33476;DHT22;19814;48.224;11.422;2023-12-20T00:27:16;6.90;79.00
33476;DHT22;19814;48.224;11.422;2023-12-20T00:29:41;6.90;79.90
33476;DHT22;19814;48.224;11.422;2023-12-20T00:32:08;6.80;79.60
33476;DHT22;19814;48.224;11.422;2023-12-20T00:34:33;6.80;79.30
33476;DHT22;19814;48.224;11.422;2023-12-20T00:36:59;6.80;79.10
33476;DHT22;19814;48.224;11.422;2023-12-20T00:39:24;6.80;79.10
33476;DHT22;19814;48.224;11.422;2023-12-20T00:41:50;6.80;79.20
33476;DHT22;19814;48.224;11.422;2023-12-20T00:44:15;6.80;78.30
33476;DHT22;19814;48.224;11.422;2023-12-20T00:46:40;6.70;78.10
33476;DHT22;19814;48.224;11.422;2023-12-20T00:49:06;6.70;78.40
33476;DHT22;19814;48.224;11.422;2023-12-20T00:51:31;6.70;78.70
33476;DHT22;19814;48.224;11.422;2023-12-20T00:53:57;6.70;78.10
33476;DHT22;19814;48.224;11.422;2023-12-20T00:56:22;6.80;78.20
33476;DHT22;19814;48.224;11.422;2023-12-20T00:58:48;6.80;78.60
33476;DHT22;19814;48.224;11.422;2023-12-20T01:01:13;6.90;77.30
33476;DHT22;19814;48.224;11.422;2023-12-20T01:03:38;6.90;77.40
33476;DHT22;19814;48.224;11.422;2023-12-20T01:06:04;6.80;78.00
33476;DHT22;19814;48.224;11.422;2023-12-20T01:08:30;6.90;77.80
33476;DHT22;19814;48.224;11.422;2023-12-20T01:10:55;7.00;77.50
33476;DHT22;19814;48.224;11.422;2023-12-20T01:13:21;7.00;77.80
33476;DHT22;19814;48.224;11.422;2023-12-20T01:15:46;7.10;77.60
33476;DHT22;19814;48.224;11.422;2023-12-20T01:18:13;7.10;77.30
33476;DHT22;19814;48.224;11.422;2023-12-20T01:20:38;7.10;76.70
33476;DHT22;19814;48.224;11.422;2023-12-20T01:23:04;7.00;77.40
33476;DHT22;19814;48.224;11.422;2023-12-20T01:25:29;6.90;77.70
33476;DHT22;19814;48.224;11.422;2023-12-20T01:27:55;6.90;77.90
33476;DHT22;19814;48.224;11.422;2023-12-20T01:30:20;6.90;78.60
33476;DHT22;19814;48.224;11.422;2023-12-20T01:32:46;6.90;78.90
33476;DHT22;19814;48.224;11.422;2023-12-20T01:35:11;6.90;78.70
33476;DHT22;19814;48.224;11.422;2023-12-20T01:37:38;7.00;78.30
33476;DHT22;19814;48.224;11.422;2023-12-20T01:40:03;7.00;78.90
33476;DHT22;19814;48.224;11.422;2023-12-20T01:42:29;7.00;78.90
33476;DHT22;19814;48.224;11.422;2023-12-20T01:44:54;7.00;79.10
33476;DHT22;19814;48.224;11.422;2023-12-20T01:47:20;7.00;78.80
33476;DHT22;19814;48.224;11.422;2023-12-20T01:49:45;7.00;79.30
33476;DHT22;19814;48.224;11.422;2023-12-20T01:52:11;7.00;79.60
33476;DHT22;19814;48.224;11.422;2023-12-20T01:54:36;7.10;79.00
33476;DHT22;19814;48.224;11.422;2023-12-20T01:57:02;7.10;79.30
33476;DHT22;19814;48.224;11.422;2023-12-20T01:59:28;7.10;79.10
33476;DHT22;19814;48.224;11.422;2023-12-20T02:01:54;7.10;78.70
33476;DHT22;19814;48.224;11.422;2023-12-20T02:04:20;7.10;79.20
33476;DHT22;19814;48.224;11.422;2023-12-20T02:06:46;7.10;79.40
33476;DHT22;19814;48.224;11.422;2023-12-20T02:09:11;7.00;79.80
33476;DHT22;19814;48.224;11.422;2023-12-20T02:11:37;7.00;79.80
33476;DHT22;19814;48.224;11.422;2023-12-20T02:14:03;7.10;79.70
33476;DHT22;19814;48.224;11.422;2023-12-20T02:16:28;7.00;79.70
33476;DHT22;19814;48.224;11.422;2023-12-20T02:18:54;7.10;79.90
33476;DHT22;19814;48.224;11.422;2023-12-20T02:21:24;7.10;80.20
33476;DHT22;19814;48.224;11.422;2023-12-20T02:23:49;7.10;80.20
33476;DHT22;19814;48.224;11.422;2023-12-20T02:26:15;7.10;79.20
33476;DHT22;19814;48.224;11.422;2023-12-20T02:28:40;7.10;79.50
33476;DHT22;19814;48.224;11.422;2023-12-20T02:31:06;7.10;79.20
33476;DHT22;19814;48.224;11.422;2023-12-20T02:33:31;7.10;80.00
33476;DHT22;19814;48.224;11.422;2023-12-20T02:35:57;7.10;80.30
33476;DHT22;19814;48.224;11.422;2023-12-20T02:38:22;7.20;80.70
33476;DHT22;19814;48.224;11.422;2023-12-20T02:40:47;7.10;81.00
33476;DHT22;19814;48.224;11.422;2023-12-20T02:43:13;7.00;81.60
33476;DHT22;19814;48.224;11.422;2023-12-20T02:45:38;7.00;82.60
33476;DHT22;19814;48.224;11.422;2023-12-20T02:48:04;7.00;82.40
33476;DHT22;19814;48.224;11.422;2023-12-20T02:50:29;6.90;82.60
33476;DHT22;19814;48.224;11.422;2023-12-20T02:52:55;6.90;82.70
33476;DHT22;19814;48.224;11.422;2023-12-20T02:55:20;6.90;83.10
33476;DHT22;19814;48.224;11.422;2023-12-20T02:57:46;6.90;83.50
33476;DHT22;19814;48.224;11.422;2023-12-20T03:00:11;6.90;83.90
33476;DHT22;19814;48.224;11.422;2023-12-20T03:02:37;6.80;83.90
33476;DHT22;19814;48.224;11.422;2023-12-20T03:05:02;6.80;84.30
33476;DHT22;19814;48.224;11.422;2023-12-20T03:07:28;6.80;84.70
33476;DHT22;19814;48.224;11.422;2023-12-20T03:09:53;6.90;84.60
33476;DHT22;19814;48.224;11.422;2023-12-20T03:12:19;7.00;84.90
33476;DHT22;19814;48.224;11.422;2023-12-20T03:14:44;7.00;85.50
33476;DHT22;19814;48.224;11.422;2023-12-20T03:17:10;7.10;85.50
33476;DHT22;19814;48.224;11.422;2023-12-20T03:19:35;7.00;86.40
33476;DHT22;19814;48.224;11.422;2023-12-20T03:22:01;7.10;87.00
33476;DHT22;19814;48.224;11.422;2023-12-20T03:24:26;7.10;87.60
33476;DHT22;19814;48.224;11.422;2023-12-20T03:26:52;7.20;88.50
33476;DHT22;19814;48.224;11.422;2023-12-20T03:29:17;7.20;89.00
33476;DHT22;19814;48.224;11.422;2023-12-20T03:31:43;7.20;89.90
33476;DHT22;19814;48.224;11.422;2023-12-20T03:34:08;7.20;90.10
33476;DHT22;19814;48.224;11.422;2023-12-20T03:36:34;7.20;90.20
33476;DHT22;19814;48.224;11.422;2023-12-20T03:38:59;7.20;90.40
33476;DHT22;19814;48.224;11.422;2023-12-20T03:41:24;7.20;90.50
33476;DHT22;19814;48.224;11.422;2023-12-20T03:43:50;7.10;90.60
33476;DHT22;19814;48.224;11.422;2023-12-20T03:46:15;7.00;91.20
33476;DHT22;19814;48.224;11.422;2023-12-20T03:48:41;6.90;91.70
33476;DHT22;19814;48.224;11.422;2023-12-20T03:51:07;6.90;92.40
33476;DHT22;19814;48.224;11.422;2023-12-20T03:53:32;6.70;93.00
33476;DHT22;19814;48.224;11.422;2023-12-20T03:55:58;6.70;93.80
33476;DHT22;19814;48.224;11.422;2023-12-20T03:58:23;6.60;94.30
33476;DHT22;19814;48.224;11.422;2023-12-20T04:00:48;6.50;95.10
33476;DHT22;19814;48.224;11.422;2023-12-20T04:03:14;6.40;95.50
33476;DHT22;19814;48.224;11.422;2023-12-20T04:05:40;6.40;96.00
33476;DHT22;19814;48.224;11.422;2023-12-20T04:08:05;6.30;96.60
33476;DHT22;19814;48.224;11.422;2023-12-20T04:10:31;6.30;97.30
33476;DHT22;19814;48.224;11.422;2023-12-20T04:12:56;6.20;97.60
33476;DHT22;19814;48.224;11.422;2023-12-20T04:15:22;6.20;98.10
33476;DHT22;19814;48.224;11.422;2023-12-20T04:17:47;6.10;98.70
33476;DHT22;19814;48.224;11.422;2023-12-20T04:20:13;6.10;99.00
33476;DHT22;19814;48.224;11.422;2023-12-20T04:22:38;6.10;99.40
33476;DHT22;19814;48.224;11.422;2023-12-20T04:25:03;6.20;99.60
33476;DHT22;19814;48.224;11.422;2023-12-20T04:27:29;6.10;99.90
33476;DHT22;19814;48.224;11.422;2023-12-20T04:29:55;6.10;99.90
33476;DHT22;19814;48.224;11.422;2023-12-20T04:32:20;6.10;99.90
33476;DHT22;19814;48.224;11.422;2023-12-20T04:34:45;6.20;99.90
33476;DHT22;19814;48.224;11.422;2023-12-20T04:37:11;6.10;99.90
33476;DHT22;19814;48.224;11.422;2023-12-20T04:39:37;6.10;99.90
33476;DHT22;19814;48.224;11.422;2023-12-20T04:42:03;6.10;99.90
33476;DHT22;19814;48.224;11.422;2023-12-20T04:44:28;6.10;99.90
33476;DHT22;19814;48.224;11.422;2023-12-20T04:46:54;6.00;99.90
33476;DHT22;19814;48.224;11.422;2023-12-20T04:49:19;6.00;99.90
33476;DHT22;19814;48.224;11.422;2023-12-20T04:51:45;6.00;99.90
33476;DHT22;19814;48.224;11.422;2023-12-20T04:54:10;5.90;99.90
33476;DHT22;19814;48.224;11.422;2023-12-20T04:56:35;5.90;99.90
33476;DHT22;19814;48.224;11.422;2023-12-20T04:59:01;5.80;99.90
33476;DHT22;19814;48.224;11.422;2023-12-20T05:01:27;5.80;99.90
33476;DHT22;19814;48.224;11.422;2023-12-20T05:03:52;5.80;99.90
33476;DHT22;19814;48.224;11.422;2023-12-20T05:06:18;5.80;99.90
33476;DHT22;19814;48.224;11.422;2023-12-20T05:08:43;5.80;99.90
33476;DHT22;19814;48.224;11.422;2023-12-20T05:11:09;5.80;99.90
33476;DHT22;19814;48.224;11.422;2023-12-20T05:13:34;5.80;99.90
33476;DHT22;19814;48.224;11.422;2023-12-20T05:16:00;5.70;99.90
33476;DHT22;19814;48.224;11.422;2023-12-20T05:18:25;5.70;99.90
33476;DHT22;19814;48.224;11.422;2023-12-20T05:20:51;5.70;99.90
33476;DHT22;19814;48.224;11.422;2023-12-20T05:23:16;5.60;99.90
33476;DHT22;19814;48.224;11.422;2023-12-20T05:25:42;5.70;99.90
33476;DHT22;19814;48.224;11.422;2023-12-20T05:28:08;5.60;99.90
33476;DHT22;19814;48.224;11.422;2023-12-20T05:30:33;5.70;99.90
33476;DHT22;19814;48.224;11.422;2023-12-20T05:32:59;5.60;99.90
33476;DHT22;19814;48.224;11.422;2023-12-20T05:35:24;5.70;99.90
33476;DHT22;19814;48.224;11.422;2023-12-20T05:37:50;5.60;99.90
33476;DHT22;19814;48.224;11.422;2023-12-20T05:40:15;5.60;99.90
33476;DHT22;19814;48.224;11.422;2023-12-20T05:42:41;5.60;99.90
33476;DHT22;19814;48.224;11.422;2023-12-20T05:45:06;5.60;99.90
33476;DHT22;19814;48.224;11.422;2023-12-20T05:47:32;5.60;99.90
33476;DHT22;19814;48.224;11.422;2023-12-20T05:49:57;5.50;99.90
33476;DHT22;19814;48.224;11.422;2023-12-20T05:52:23;5.50;99.90
33476;DHT22;19814;48.224;11.422;2023-12-20T05:54:49;5.50;99.90
33476;DHT22;19814;48.224;11.422;2023-12-20T05:57:14;5.50;99.90
33476;DHT22;19814;48.224;11.422;2023-12-20T05:59:40;5.60;99.90
33476;DHT22;19814;48.224;11.422;2023-12-20T06:02:05;5.60;99.90
33476;DHT22;19814;48.224;11.422;2023-12-20T06:04:31;5.50;99.90
33476;DHT22;19814;48.224;11.422;2023-12-20T06:06:57;5.50;99.90
33476;DHT22;19814;48.224;11.422;2023-12-20T06:09:22;5.50;99.90
33476;DHT22;19814;48.224;11.422;2023-12-20T06:11:48;5.50;99.90
33476;DHT22;19814;48.224;11.422;2023-12-20T06:14:13;5.40;99.90
33476;DHT22;19814;48.224;11.422;2023-12-20T06:16:38;5.40;99.90
33476;DHT22;19814;48.224;11.422;2023-12-20T06:19:04;5.40;99.90
33476;DHT22;19814;48.224;11.422;2023-12-20T06:21:29;5.40;99.90
33476;DHT22;19814;48.224;11.422;2023-12-20T06:23:55;5.30;99.90
33476;DHT22;19814;48.224;11.422;2023-12-20T06:26:20;5.30;99.90
33476;DHT22;19814;48.224;11.422;2023-12-20T06:28:46;5.30;99.90
33476;DHT22;19814;48.224;11.422;2023-12-20T06:31:11;5.20;99.90
33476;DHT22;19814;48.224;11.422;2023-12-20T06:33:37;5.20;99.90
33476;DHT22;19814;48.224;11.422;2023-12-20T06:36:03;5.20;99.90
33476;DHT22;19814;48.224;11.422;2023-12-20T06:38:28;5.20;99.90
33476;DHT22;19814;48.224;11.422;2023-12-20T06:40:54;5.20;99.90
33476;DHT22;19814;48.224;11.422;2023-12-20T06:43:20;5.10;99.90
33476;DHT22;19814;48.224;11.422;2023-12-20T06:45:45;5.20;99.90
33476;DHT22;19814;48.224;11.422;2023-12-20T06:48:10;5.20;99.90
33476;DHT22;19814;48.224;11.422;2023-12-20T06:50:38;5.10;99.90
33476;DHT22;19814;48.224;11.422;2023-12-20T06:53:05;5.10;99.90
33476;DHT22;19814;48.224;11.422;2023-12-20T06:55:32;5.10;99.90
33476;DHT22;19814;48.224;11.422;2023-12-20T06:57:58;5.10;99.90
33476;DHT22;19814;48.224;11.422;2023-12-20T07:00:23;5.10;99.90
33476;DHT22;19814;48.224;11.422;2023-12-20T07:02:49;5.00;99.90
33476;DHT22;19814;48.224;11.422;2023-12-20T07:05:18;5.10;99.90
33476;DHT22;19814;48.224;11.422;2023-12-20T07:07:45;5.10;99.90
33476;DHT22;19814;48.224;11.422;2023-12-20T07:10:11;5.10;99.90
33476;DHT22;19814;48.224;11.422;2023-12-20T07:12:37;5.10;99.90
33476;DHT22;19814;48.224;11.422;2023-12-20T07:15:02;5.10;99.90
33476;DHT22;19814;48.224;11.422;2023-12-20T07:17:28;5.20;99.90
33476;DHT22;19814;48.224;11.422;2023-12-20T07:19:53;5.20;99.90
33476;DHT22;19814;48.224;11.422;2023-12-20T07:22:19;5.20;99.90
33476;DHT22;19814;48.224;11.422;2023-12-20T07:24:44;5.20;99.90
33476;DHT22;19814;48.224;11.422;2023-12-20T07:27:11;5.20;99.90
33476;DHT22;19814;48.224;11.422;2023-12-20T07:29:36;5.20;99.90
33476;DHT22;19814;48.224;11.422;2023-12-20T07:32:02;5.20;99.90
33476;DHT22;19814;48.224;11.422;2023-12-20T07:34:27;5.20;99.90
33476;DHT22;19814;48.224;11.422;2023-12-20T07:36:52;5.20;99.90
33476;DHT22;19814;48.224;11.422;2023-12-20T07:39:18;5.20;99.90
33476;DHT22;19814;48.224;11.422;2023-12-20T07:41:44;5.30;99.90
33476;DHT22;19814;48.224;11.422;2023-12-20T07:44:09;5.30;99.90
33476;DHT22;19814;48.224;11.422;2023-12-20T07:46:35;5.30;99.90
33476;DHT22;19814;48.224;11.422;2023-12-20T07:49:00;5.30;99.90
33476;DHT22;19814;48.224;11.422;2023-12-20T07:51:26;5.40;99.90
33476;DHT22;19814;48.224;11.422;2023-12-20T07:53:51;5.30;99.90
33476;DHT22;19814;48.224;11.422;2023-12-20T07:56:17;5.40;99.90
33476;DHT22;19814;48.224;11.422;2023-12-20T07:58:43;5.30;99.90
33476;DHT22;19814;48.224;11.422;2023-12-20T08:01:10;5.40;99.90
33476;DHT22;19814;48.224;11.422;2023-12-20T08:03:35;5.40;99.90
33476;DHT22;19814;48.224;11.422;2023-12-20T08:06:02;5.30;99.90
33476;DHT22;19814;48.224;11.422;2023-12-20T08:08:27;5.40;99.90
33476;DHT22;19814;48.224;11.422;2023-12-20T08:10:53;5.30;99.90
33476;DHT22;19814;48.224;11.422;2023-12-20T08:13:18;5.30;99.90
33476;DHT22;19814;48.224;11.422;2023-12-20T08:15:44;5.30;99.90
33476;DHT22;19814;48.224;11.422;2023-12-20T08:18:09;5.30;99.90
33476;DHT22;19814;48.224;11.422;2023-12-20T08:20:35;5.30;99.90
33476;DHT22;19814;48.224;11.422;2023-12-20T08:23:00;5.30;99.90
33476;DHT22;19814;48.224;11.422;2023-12-20T08:25:26;5.30;99.90
33476;DHT22;19814;48.224;11.422;2023-12-20T08:27:52;5.30;99.90
33476;DHT22;19814;48.224;11.422;2023-12-20T08:30:18;5.40;99.90
33476;DHT22;19814;48.224;11.422;2023-12-20T08:32:46;5.30;99.90
33476;DHT22;19814;48.224;11.422;2023-12-20T08:35:11;5.30;99.90
33476;DHT22;19814;48.224;11.422;2023-12-20T08:37:36;5.30;99.90
33476;DHT22;19814;48.224;11.422;2023-12-20T08:40:02;5.30;99.90
33476;DHT22;19814;48.224;11.422;2023-12-20T08:42:27;5.40;99.90
33476;DHT22;19814;48.224;11.422;2023-12-20T08:44:56;5.40;99.90
33476;DHT22;19814;48.224;11.422;2023-12-20T08:47:22;5.40;99.90
33476;DHT22;19814;48.224;11.422;2023-12-20T08:49:48;5.40;99.90
33476;DHT22;19814;48.224;11.422;2023-12-20T08:52:13;5.40;99.90
33476;DHT22;19814;48.224;11.422;2023-12-20T08:54:39;5.50;99.90
33476;DHT22;19814;48.224;11.422;2023-12-20T08:57:04;5.50;99.90
33476;DHT22;19814;48.224;11.422;2023-12-20T08:59:32;5.50;99.90
33476;DHT22;19814;48.224;11.422;2023-12-20T09:01:57;5.50;99.90
33476;DHT22;19814;48.224;11.422;2023-12-20T09:04:23;5.50;99.90
33476;DHT22;19814;48.224;11.422;2023-12-20T09:06:48;5.50;99.90
33476;DHT22;19814;48.224;11.422;2023-12-20T09:09:14;5.50;99.90
33476;DHT22;19814;48.224;11.422;2023-12-20T09:11:39;5.50;99.90
33476;DHT22;19814;48.224;11.422;2023-12-20T09:14:05;5.50;99.90
33476;DHT22;19814;48.224;11.422;2023-12-20T09:16:30;5.60;99.90
33476;DHT22;19814;48.224;11.422;2023-12-20T09:18:57;5.60;99.90
33476;DHT22;19814;48.224;11.422;2023-12-20T09:21:22;5.70;99.90
33476;DHT22;19814;48.224;11.422;2023-12-20T09:23:48;5.70;99.90
33476;DHT22;19814;48.224;11.422;2023-12-20T09:26:13;5.70;99.90
33476;DHT22;19814;48.224;11.422;2023-12-20T09:28:39;5.70;99.90
33476;DHT22;19814;48.224;11.422;2023-12-20T09:31:05;5.70;99.90
33476;DHT22;19814;48.224;11.422;2023-12-20T09:33:32;5.70;99.90
33476;DHT22;19814;48.224;11.422;2023-12-20T09:35:57;5.80;99.90
33476;DHT22;19814;48.224;11.422;2023-12-20T09:38:23;5.80;99.90
33476;DHT22;19814;48.224;11.422;2023-12-20T09:40:48;5.80;99.90
33476;DHT22;19814;48.224;11.422;2023-12-20T09:43:14;5.80;99.90
33476;DHT22;19814;48.224;11.422;2023-12-20T09:45:41;5.80;99.90
33476;DHT22;19814;48.224;11.422;2023-12-20T09:48:07;5.90;99.90
33476;DHT22;19814;48.224;11.422;2023-12-20T09:50:35;5.90;99.90
33476;DHT22;19814;48.224;11.422;2023-12-20T09:53:01;5.90;99.90
33476;DHT22;19814;48.224;11.422;2023-12-20T09:55:27;6.00;99.90
33476;DHT22;19814;48.224;11.422;2023-12-20T09:57:54;6.20;99.90
33476;DHT22;19814;48.224;11.422;2023-12-20T10:00:19;6.20;99.90
33476;DHT22;19814;48.224;11.422;2023-12-20T10:02:50;6.20;99.90
33476;DHT22;19814;48.224;11.422;2023-12-20T10:05:19;6.30;99.90
33476;DHT22;19814;48.224;11.422;2023-12-20T10:07:48;6.30;99.90
33476;DHT22;19814;48.224;11.422;2023-12-20T10:10:13;6.40;99.90
33476;DHT22;19814;48.224;11.422;2023-12-20T10:12:39;6.40;99.90
33476;DHT22;19814;48.224;11.422;2023-12-20T10:15:05;6.50;99.90
33476;DHT22;19814;48.224;11.422;2023-12-20T10:17:31;6.60;99.90
33476;DHT22;19814;48.224;11.422;2023-12-20T10:19:58;6.60;99.90
33476;DHT22;19814;48.224;11.422;2023-12-20T10:22:24;6.60;99.90
33476;DHT22;19814;48.224;11.422;2023-12-20T10:24:49;6.60;99.90
33476;DHT22;19814;48.224;11.422;2023-12-20T10:27:15;6.60;99.90
33476;DHT22;19814;48.224;11.422;2023-12-20T10:29:44;6.60;99.90
33476;DHT22;19814;48.224;11.422;2023-12-20T10:32:21;6.60;99.90
33476;DHT22;19814;48.224;11.422;2023-12-20T10:34:46;6.60;99.90
33476;DHT22;19814;48.224;11.422;2023-12-20T10:37:12;6.60;99.90
33476;DHT22;19814;48.224;11.422;2023-12-20T10:39:37;6.60;99.90
33476;DHT22;19814;48.224;11.422;2023-12-20T10:42:04;6.60;99.90
33476;DHT22;19814;48.224;11.422;2023-12-20T10:44:29;6.60;99.90
33476;DHT22;19814;48.224;11.422;2023-12-20T10:46:55;6.70;99.90
33476;DHT22;19814;48.224;11.422;2023-12-20T10:49:24;6.60;99.90
33476;DHT22;19814;48.224;11.422;2023-12-20T10:51:50;6.60;99.90
33476;DHT22;19814;48.224;11.422;2023-12-20T10:54:19;6.60;99.90
33476;DHT22;19814;48.224;11.422;2023-12-20T10:56:45;6.50;99.90
33476;DHT22;19814;48.224;11.422;2023-12-20T10:59:11;6.50;99.90
33476;DHT22;19814;48.224;11.422;2023-12-20T11:01:37;6.50;99.90
33476;DHT22;19814;48.224;11.422;2023-12-20T11:04:03;6.50;99.90
33476;DHT22;19814;48.224;11.422;2023-12-20T11:06:43;6.60;99.90
33476;DHT22;19814;48.224;11.422;2023-12-20T11:09:24;6.60;99.90
33476;DHT22;19814;48.224;11.422;2023-12-20T11:11:56;6.60;99.90
33476;DHT22;19814;48.224;11.422;2023-12-20T11:14:28;6.60;99.90
33476;DHT22;19814;48.224;11.422;2023-12-20T11:17:07;6.60;99.90
33476;DHT22;19814;48.224;11.422;2023-12-20T11:19:35;6.50;99.90
33476;DHT22;19814;48.224;11.422;2023-12-20T11:22:01;6.50;99.90
33476;DHT22;19814;48.224;11.422;2023-12-20T11:24:26;6.50;99.90
33476;DHT22;19814;48.224;11.422;2023-12-20T11:26:54;6.60;99.90
33476;DHT22;19814;48.224;11.422;2023-12-20T11:29:29;6.60;99.90
33476;DHT22;19814;48.224;11.422;2023-12-20T11:31:55;6.70;99.90
33476;DHT22;19814;48.224;11.422;2023-12-20T11:34:20;6.80;99.90
33476;DHT22;19814;48.224;11.422;2023-12-20T11:36:46;7.00;99.90
33476;DHT22;19814;48.224;11.422;2023-12-20T11:39:11;7.00;99.90
33476;DHT22;19814;48.224;11.422;2023-12-20T11:41:38;6.90;99.90
33476;DHT22;19814;48.224;11.422;2023-12-20T11:44:04;6.90;99.90
33476;DHT22;19814;48.224;11.422;2023-12-20T11:46:29;7.10;99.90
33476;DHT22;19814;48.224;11.422;2023-12-20T11:48:56;7.30;99.90
33476;DHT22;19814;48.224;11.422;2023-12-20T11:51:21;7.40;99.90
33476;DHT22;19814;48.224;11.422;2023-12-20T11:53:51;7.50;99.90
33476;DHT22;19814;48.224;11.422;2023-12-20T11:56:16;7.60;99.90
33476;DHT22;19814;48.224;11.422;2023-12-20T11:58:42;7.70;99.90
33476;DHT22;19814;48.224;11.422;2023-12-20T12:01:08;7.70;99.90
33476;DHT22;19814;48.224;11.422;2023-12-20T12:03:33;8.30;99.90
33476;DHT22;19814;48.224;11.422;2023-12-20T12:05:59;8.80;99.90
33476;DHT22;19814;48.224;11.422;2023-12-20T12:08:26;8.90;99.90
33476;DHT22;19814;48.224;11.422;2023-12-20T12:10:51;9.20;99.90
33476;DHT22;19814;48.224;11.422;2023-12-20T12:13:17;9.20;99.90
33476;DHT22;19814;48.224;11.422;2023-12-20T12:15:42;8.70;99.90
33476;DHT22;19814;48.224;11.422;2023-12-20T12:18:08;8.30;99.90
33476;DHT22;19814;48.224;11.422;2023-12-20T12:20:34;7.90;99.90
33476;DHT22;19814;48.224;11.422;2023-12-20T12:23:00;7.60;99.90
33476;DHT22;19814;48.224;11.422;2023-12-20T12:25:26;7.30;99.90
33476;DHT22;19814;48.224;11.422;2023-12-20T12:27:52;7.10;99.90
33476;DHT22;19814;48.224;11.422;2023-12-20T12:30:18;6.90;99.90
33476;DHT22;19814;48.224;11.422;2023-12-20T12:32:44;6.70;99.90
33476;DHT22;19814;48.224;11.422;2023-12-20T12:35:09;6.60;99.90
33476;DHT22;19814;48.224;11.422;2023-12-20T12:37:36;6.50;99.90
33476;DHT22;19814;48.224;11.422;2023-12-20T12:40:04;6.40;99.90
33476;DHT22;19814;48.224;11.422;2023-12-20T12:42:30;6.30;99.90
33476;DHT22;19814;48.224;11.422;2023-12-20T12:44:55;6.30;99.90
33476;DHT22;19814;48.224;11.422;2023-12-20T12:47:24;6.10;99.90
33476;DHT22;19814;48.224;11.422;2023-12-20T12:49:49;6.00;99.90
33476;DHT22;19814;48.224;11.422;2023-12-20T12:52:16;5.80;99.90
33476;DHT22;19814;48.224;11.422;2023-12-20T12:54:42;5.80;99.90
33476;DHT22;19814;48.224;11.422;2023-12-20T12:57:07;5.80;99.90
33476;DHT22;19814;48.224;11.422;2023-12-20T12:59:33;5.80;99.90
33476;DHT22;19814;48.224;11.422;2023-12-20T13:01:58;5.80;99.90
33476;DHT22;19814;48.224;11.422;2023-12-20T13:04:24;5.80;99.90
33476;DHT22;19814;48.224;11.422;2023-12-20T13:06:49;5.70;99.90
33476;DHT22;19814;48.224;11.422;2023-12-20T13:09:15;5.60;99.90
33476;DHT22;19814;48.224;11.422;2023-12-20T13:11:40;5.60;99.90
33476;DHT22;19814;48.224;11.422;2023-12-20T13:14:06;5.60;99.90
33476;DHT22;19814;48.224;11.422;2023-12-20T13:16:32;5.60;99.90
33476;DHT22;19814;48.224;11.422;2023-12-20T13:18:59;5.60;99.90
33476;DHT22;19814;48.224;11.422;2023-12-20T13:21:25;5.60;99.90
33476;DHT22;19814;48.224;11.422;2023-12-20T13:23:50;5.60;99.90
33476;DHT22;19814;48.224;11.422;2023-12-20T13:26:16;5.70;99.90
33476;DHT22;19814;48.224;11.422;2023-12-20T13:28:41;5.70;99.90
33476;DHT22;19814;48.224;11.422;2023-12-20T13:31:07;5.70;99.90
33476;DHT22;19814;48.224;11.422;2023-12-20T13:33:32;5.80;99.90
33476;DHT22;19814;48.224;11.422;2023-12-20T13:35:58;5.80;99.90
33476;DHT22;19814;48.224;11.422;2023-12-20T13:38:24;5.80;99.90
33476;DHT22;19814;48.224;11.422;2023-12-20T13:40:50;5.90;99.90
33476;DHT22;19814;48.224;11.422;2023-12-20T13:43:15;5.90;99.90
33476;DHT22;19814;48.224;11.422;2023-12-20T13:45:45;5.80;99.90
33476;DHT22;19814;48.224;11.422;2023-12-20T13:48:12;5.90;99.90
33476;DHT22;19814;48.224;11.422;2023-12-20T13:50:37;5.90;99.90
33476;DHT22;19814;48.224;11.422;2023-12-20T13:53:02;5.90;99.90
33476;DHT22;19814;48.224;11.422;2023-12-20T13:55:29;5.90;99.90
33476;DHT22;19814;48.224;11.422;2023-12-20T13:57:56;5.90;99.90
33476;DHT22;19814;48.224;11.422;2023-12-20T14:00:22;5.90;99.90
33476;DHT22;19814;48.224;11.422;2023-12-20T14:02:47;5.80;99.90
33476;DHT22;19814;48.224;11.422;2023-12-20T14:05:13;5.90;99.90
33476;DHT22;19814;48.224;11.422;2023-12-20T14:07:42;5.90;99.90
33476;DHT22;19814;48.224;11.422;2023-12-20T14:10:11;5.80;99.90
33476;DHT22;19814;48.224;11.422;2023-12-20T14:12:39;5.80;99.90
33476;DHT22;19814;48.224;11.422;2023-12-20T14:15:05;5.80;99.90
33476;DHT22;19814;48.224;11.422;2023-12-20T14:17:39;5.90;99.90
33476;DHT22;19814;48.224;11.422;2023-12-20T14:20:05;5.90;99.90
33476;DHT22;19814;48.224;11.422;2023-12-20T14:22:31;5.90;99.90
33476;DHT22;19814;48.224;11.422;2023-12-20T14:24:57;5.90;99.90
33476;DHT22;19814;48.224;11.422;2023-12-20T14:27:22;5.90;99.90
33476;DHT22;19814;48.224;11.422;2023-12-20T14:29:49;5.80;99.90
33476;DHT22;19814;48.224;11.422;2023-12-20T14:32:15;5.70;99.90
33476;DHT22;19814;48.224;11.422;2023-12-20T14:34:41;5.70;99.90
33476;DHT22;19814;48.224;11.422;2023-12-20T14:37:07;5.60;99.90
33476;DHT22;19814;48.224;11.422;2023-12-20T14:39:32;5.60;99.90
33476;DHT22;19814;48.224;11.422;2023-12-20T14:41:58;5.50;99.90
33476;DHT22;19814;48.224;11.422;2023-12-20T14:44:23;5.50;99.90
33476;DHT22;19814;48.224;11.422;2023-12-20T14:46:49;5.50;99.90
33476;DHT22;19814;48.224;11.422;2023-12-20T14:49:15;5.50;99.90
33476;DHT22;19814;48.224;11.422;2023-12-20T14:51:43;5.40;99.90
33476;DHT22;19814;48.224;11.422;2023-12-20T14:54:08;5.40;99.90
33476;DHT22;19814;48.224;11.422;2023-12-20T14:56:35;5.40;99.90
33476;DHT22;19814;48.224;11.422;2023-12-20T14:59:01;5.30;99.90
33476;DHT22;19814;48.224;11.422;2023-12-20T15:01:26;5.30;99.90
33476;DHT22;19814;48.224;11.422;2023-12-20T15:03:51;5.20;99.90
33476;DHT22;19814;48.224;11.422;2023-12-20T15:06:17;5.10;99.90
33476;DHT22;19814;48.224;11.422;2023-12-20T15:08:45;5.10;99.90
33476;DHT22;19814;48.224;11.422;2023-12-20T15:11:11;5.10;99.90
33476;DHT22;19814;48.224;11.422;2023-12-20T15:13:36;5.10;99.90
33476;DHT22;19814;48.224;11.422;2023-12-20T15:16:02;5.10;99.90
33476;DHT22;19814;48.224;11.422;2023-12-20T15:18:27;5.20;99.90
33476;DHT22;19814;48.224;11.422;2023-12-20T15:20:53;5.20;99.90